sensor_id;sensor_type;location;lat;lon;timestamp;P1;durP1;ratioP1;P2;durP2;ratioP2
80227;SDS011;69539;42.138;24.742;2024-02-21T00:01:55;35.33;;;25.38;;
80227;SDS011;69539;42.138;24.742;2024-02-21T00:04:21;34.30;;;25.13;;
80227;SDS011;69539;42.138;24.742;2024-02-21T00:06:47;35.47;;;24.13;;
80227;SDS011;69539;42.138;24.742;2024-02-21T00:09:12;34.08;;;23.83;;
80227;SDS011;69539;42.138;24.742;2024-02-21T00:11:38;33.80;;;23.77;;
80227;SDS011;69539;42.138;24.742;2024-02-21T00:14:04;33.17;;;24.17;;
80227;SDS011;69539;42.138;24.742;2024-02-21T00:16:29;33.85;;;25.20;;
80227;SDS011;69539;42.138;24.742;2024-02-21T00:18:55;32.63;;;24.65;;
80227;SDS011;69539;42.138;24.742;2024-02-21T00:21:20;34.92;;;24.30;;
80227;SDS011;69539;42.138;24.742;2024-02-21T00:23:47;34.63;;;24.83;;
80227;SDS011;69539;42.138;24.742;2024-02-21T00:26:13;32.30;;;23.67;;
80227;SDS011;69539;42.138;24.742;2024-02-21T00:28:39;34.60;;;24.25;;
80227;SDS011;69539;42.138;24.742;2024-02-21T00:31:04;32.95;;;23.95;;
80227;SDS011;69539;42.138;24.742;2024-02-21T00:33:30;32.08;;;24.35;;
80227;SDS011;69539;42.138;24.742;2024-02-21T00:35:56;36.92;;;25.75;;
80227;SDS011;69539;42.138;24.742;2024-02-21T00:38:21;35.00;;;26.30;;
80227;SDS011;69539;42.138;24.742;2024-02-21T00:40:47;33.83;;;24.70;;
80227;SDS011;69539;42.138;24.742;2024-02-21T00:43:13;36.15;;;26.13;;
80227;SDS011;69539;42.138;24.742;2024-02-21T00:45:38;36.55;;;24.98;;
80227;SDS011;69539;42.138;24.742;2024-02-21T00:48:04;35.58;;;26.05;;
80227;SDS011;69539;42.138;24.742;2024-02-21T00:50:30;38.00;;;26.95;;
80227;SDS011;69539;42.138;24.742;2024-02-21T00:52:56;37.78;;;26.40;;
80227;SDS011;69539;42.138;24.742;2024-02-21T00:55:22;38.03;;;27.55;;
80227;SDS011;69539;42.138;24.742;2024-02-21T00:57:48;36.42;;;26.52;;
80227;SDS011;69539;42.138;24.742;2024-02-21T01:00:14;38.63;;;27.98;;
80227;SDS011;69539;42.138;24.742;2024-02-21T01:02:39;37.70;;;26.60;;
80227;SDS011;69539;42.138;24.742;2024-02-21T01:05:05;39.75;;;28.45;;
80227;SDS011;69539;42.138;24.742;2024-02-21T01:07:31;39.88;;;28.38;;
80227;SDS011;69539;42.138;24.742;2024-02-21T01:09:57;37.95;;;28.20;;
80227;SDS011;69539;42.138;24.742;2024-02-21T01:12:23;38.45;;;28.23;;
80227;SDS011;69539;42.138;24.742;2024-02-21T01:14:48;39.85;;;28.95;;
80227;SDS011;69539;42.138;24.742;2024-02-21T01:17:14;38.50;;;29.10;;
80227;SDS011;69539;42.138;24.742;2024-02-21T01:19:40;39.15;;;28.60;;
80227;SDS011;69539;42.138;24.742;2024-02-21T01:22:06;41.25;;;30.02;;
80227;SDS011;69539;42.138;24.742;2024-02-21T01:24:32;40.00;;;29.33;;
80227;SDS011;69539;42.138;24.742;2024-02-21T01:26:57;39.60;;;28.80;;
80227;SDS011;69539;42.138;24.742;2024-02-21T01:29:23;38.90;;;28.63;;
80227;SDS011;69539;42.138;24.742;2024-02-21T01:31:48;39.80;;;28.90;;
80227;SDS011;69539;42.138;24.742;2024-02-21T01:34:14;37.05;;;27.02;;
80227;SDS011;69539;42.138;24.742;2024-02-21T01:36:40;35.38;;;26.20;;
80227;SDS011;69539;42.138;24.742;2024-02-21T01:39:07;36.53;;;25.77;;
80227;SDS011;69539;42.138;24.742;2024-02-21T01:41:32;34.55;;;25.33;;
80227;SDS011;69539;42.138;24.742;2024-02-21T01:43:58;33.75;;;25.15;;
80227;SDS011;69539;42.138;24.742;2024-02-21T01:46:24;36.55;;;25.00;;
80227;SDS011;69539;42.138;24.742;2024-02-21T01:48:55;33.33;;;24.42;;
80227;SDS011;69539;42.138;24.742;2024-02-21T01:51:21;32.65;;;24.23;;
80227;SDS011;69539;42.138;24.742;2024-02-21T01:53:48;32.75;;;24.70;;
80227;SDS011;69539;42.138;24.742;2024-02-21T01:56:15;33.90;;;23.80;;
80227;SDS011;69539;42.138;24.742;2024-02-21T01:58:42;34.67;;;24.83;;
80227;SDS011;69539;42.138;24.742;2024-02-21T02:01:09;32.10;;;23.77;;
80227;SDS011;69539;42.138;24.742;2024-02-21T02:03:35;33.65;;;24.17;;
80227;SDS011;69539;42.138;24.742;2024-02-21T02:06:01;36.03;;;25.38;;
80227;SDS011;69539;42.138;24.742;2024-02-21T02:08:30;31.15;;;23.88;;
80227;SDS011;69539;42.138;24.742;2024-02-21T02:10:57;31.48;;;23.60;;
80227;SDS011;69539;42.138;24.742;2024-02-21T02:13:23;34.80;;;24.65;;
80227;SDS011;69539;42.138;24.742;2024-02-21T02:15:49;34.38;;;25.20;;
80227;SDS011;69539;42.138;24.742;2024-02-21T02:18:15;34.97;;;24.23;;
80227;SDS011;69539;42.138;24.742;2024-02-21T02:20:42;30.13;;;23.08;;
80227;SDS011;69539;42.138;24.742;2024-02-21T02:23:10;32.40;;;24.70;;
80227;SDS011;69539;42.138;24.742;2024-02-21T02:25:36;32.20;;;24.38;;
80227;SDS011;69539;42.138;24.742;2024-02-21T02:28:06;33.83;;;25.60;;
80227;SDS011;69539;42.138;24.742;2024-02-21T02:30:33;33.53;;;24.63;;
80227;SDS011;69539;42.138;24.742;2024-02-21T02:33:01;34.30;;;25.20;;
80227;SDS011;69539;42.138;24.742;2024-02-21T02:35:30;33.67;;;24.55;;
80227;SDS011;69539;42.138;24.742;2024-02-21T02:37:56;34.67;;;25.85;;
80227;SDS011;69539;42.138;24.742;2024-02-21T02:40:22;34.00;;;25.75;;
80227;SDS011;69539;42.138;24.742;2024-02-21T02:42:48;37.35;;;26.50;;
80227;SDS011;69539;42.138;24.742;2024-02-21T02:45:17;35.10;;;26.00;;
80227;SDS011;69539;42.138;24.742;2024-02-21T02:47:46;33.50;;;24.38;;
80227;SDS011;69539;42.138;24.742;2024-02-21T02:50:12;33.63;;;25.02;;
80227;SDS011;69539;42.138;24.742;2024-02-21T02:52:38;36.65;;;26.13;;
80227;SDS011;69539;42.138;24.742;2024-02-21T02:55:04;36.55;;;26.70;;
80227;SDS011;69539;42.138;24.742;2024-02-21T02:57:30;35.60;;;26.85;;
80227;SDS011;69539;42.138;24.742;2024-02-21T02:59:56;34.88;;;26.35;;
80227;SDS011;69539;42.138;24.742;2024-02-21T03:02:22;36.90;;;26.85;;
80227;SDS011;69539;42.138;24.742;2024-02-21T03:04:48;39.13;;;27.17;;
80227;SDS011;69539;42.138;24.742;2024-02-21T03:07:14;37.42;;;26.20;;
80227;SDS011;69539;42.138;24.742;2024-02-21T03:09:41;39.85;;;27.95;;
80227;SDS011;69539;42.138;24.742;2024-02-21T03:12:10;36.30;;;26.55;;
80227;SDS011;69539;42.138;24.742;2024-02-21T03:14:36;34.10;;;25.83;;
80227;SDS011;69539;42.138;24.742;2024-02-21T03:17:02;36.15;;;25.73;;
80227;SDS011;69539;42.138;24.742;2024-02-21T03:19:28;31.77;;;25.20;;
80227;SDS011;69539;42.138;24.742;2024-02-21T03:21:54;37.78;;;27.40;;
80227;SDS011;69539;42.138;24.742;2024-02-21T03:24:20;36.28;;;26.92;;
80227;SDS011;69539;42.138;24.742;2024-02-21T03:26:46;38.90;;;27.42;;
80227;SDS011;69539;42.138;24.742;2024-02-21T03:29:14;34.80;;;25.67;;
80227;SDS011;69539;42.138;24.742;2024-02-21T03:31:40;33.38;;;25.63;;
80227;SDS011;69539;42.138;24.742;2024-02-21T03:34:06;33.50;;;24.67;;
80227;SDS011;69539;42.138;24.742;2024-02-21T03:36:32;31.25;;;23.15;;
80227;SDS011;69539;42.138;24.742;2024-02-21T03:38:57;33.92;;;24.25;;
80227;SDS011;69539;42.138;24.742;2024-02-21T03:41:23;32.55;;;24.17;;
80227;SDS011;69539;42.138;24.742;2024-02-21T03:43:49;32.00;;;22.98;;
80227;SDS011;69539;42.138;24.742;2024-02-21T03:46:14;30.73;;;21.30;;
80227;SDS011;69539;42.138;24.742;2024-02-21T03:48:40;31.02;;;23.63;;
80227;SDS011;69539;42.138;24.742;2024-02-21T03:51:06;27.65;;;21.48;;
80227;SDS011;69539;42.138;24.742;2024-02-21T03:53:32;29.55;;;21.98;;
80227;SDS011;69539;42.138;24.742;2024-02-21T03:56:01;27.30;;;20.25;;
80227;SDS011;69539;42.138;24.742;2024-02-21T03:58:29;27.80;;;20.55;;
80227;SDS011;69539;42.138;24.742;2024-02-21T04:00:59;29.20;;;21.92;;
80227;SDS011;69539;42.138;24.742;2024-02-21T04:03:25;29.65;;;21.77;;
80227;SDS011;69539;42.138;24.742;2024-02-21T04:05:51;27.02;;;20.77;;
80227;SDS011;69539;42.138;24.742;2024-02-21T04:08:17;25.25;;;19.83;;
80227;SDS011;69539;42.138;24.742;2024-02-21T04:10:42;28.35;;;21.63;;
80227;SDS011;69539;42.138;24.742;2024-02-21T04:13:08;26.05;;;21.02;;
80227;SDS011;69539;42.138;24.742;2024-02-21T04:15:34;26.33;;;19.48;;
80227;SDS011;69539;42.138;24.742;2024-02-21T04:18:00;27.15;;;20.73;;
80227;SDS011;69539;42.138;24.742;2024-02-21T04:20:26;25.45;;;20.35;;
80227;SDS011;69539;42.138;24.742;2024-02-21T04:22:52;26.73;;;19.98;;
80227;SDS011;69539;42.138;24.742;2024-02-21T04:25:17;25.23;;;19.60;;
80227;SDS011;69539;42.138;24.742;2024-02-21T04:27:44;25.60;;;19.38;;
80227;SDS011;69539;42.138;24.742;2024-02-21T04:30:10;22.90;;;19.15;;
80227;SDS011;69539;42.138;24.742;2024-02-21T04:32:35;24.92;;;19.20;;
80227;SDS011;69539;42.138;24.742;2024-02-21T04:35:01;23.23;;;19.05;;
80227;SDS011;69539;42.138;24.742;2024-02-21T04:37:27;27.02;;;19.35;;
80227;SDS011;69539;42.138;24.742;2024-02-21T04:39:53;25.80;;;20.17;;
80227;SDS011;69539;42.138;24.742;2024-02-21T04:42:18;26.20;;;21.52;;
80227;SDS011;69539;42.138;24.742;2024-02-21T04:44:44;31.75;;;24.25;;
80227;SDS011;69539;42.138;24.742;2024-02-21T04:47:10;32.75;;;24.42;;
80227;SDS011;69539;42.138;24.742;2024-02-21T04:49:35;36.20;;;27.40;;
80227;SDS011;69539;42.138;24.742;2024-02-21T04:52:01;33.30;;;25.83;;
80227;SDS011;69539;42.138;24.742;2024-02-21T04:54:27;35.63;;;27.27;;
80227;SDS011;69539;42.138;24.742;2024-02-21T04:56:52;36.13;;;27.35;;
80227;SDS011;69539;42.138;24.742;2024-02-21T04:59:18;36.60;;;27.58;;
80227;SDS011;69539;42.138;24.742;2024-02-21T05:01:44;37.15;;;27.23;;
80227;SDS011;69539;42.138;24.742;2024-02-21T05:04:09;35.70;;;27.70;;
80227;SDS011;69539;42.138;24.742;2024-02-21T05:06:41;38.30;;;28.65;;
80227;SDS011;69539;42.138;24.742;2024-02-21T05:09:07;39.90;;;28.80;;
80227;SDS011;69539;42.138;24.742;2024-02-21T05:11:34;37.03;;;27.88;;
80227;SDS011;69539;42.138;24.742;2024-02-21T05:14:00;40.05;;;29.33;;
80227;SDS011;69539;42.138;24.742;2024-02-21T05:16:26;41.33;;;30.92;;
80227;SDS011;69539;42.138;24.742;2024-02-21T05:18:51;43.60;;;32.83;;
80227;SDS011;69539;42.138;24.742;2024-02-21T05:21:17;84.35;;;66.50;;
80227;SDS011;69539;42.138;24.742;2024-02-21T05:23:42;326.30;;;231.77;;
80227;SDS011;69539;42.138;24.742;2024-02-21T05:26:08;449.83;;;281.88;;
80227;SDS011;69539;42.138;24.742;2024-02-21T05:28:34;468.55;;;308.70;;
80227;SDS011;69539;42.138;24.742;2024-02-21T05:31:00;358.80;;;221.82;;
80227;SDS011;69539;42.138;24.742;2024-02-21T05:33:25;241.13;;;146.52;;
80227;SDS011;69539;42.138;24.742;2024-02-21T05:35:52;170.77;;;112.07;;
80227;SDS011;69539;42.138;24.742;2024-02-21T05:38:17;130.55;;;83.38;;
80227;SDS011;69539;42.138;24.742;2024-02-21T05:40:44;100.07;;;67.05;;
80227;SDS011;69539;42.138;24.742;2024-02-21T05:43:10;79.85;;;53.47;;
80227;SDS011;69539;42.138;24.742;2024-02-21T05:45:36;70.20;;;49.13;;
80227;SDS011;69539;42.138;24.742;2024-02-21T05:48:02;64.90;;;45.00;;
80227;SDS011;69539;42.138;24.742;2024-02-21T05:50:28;63.22;;;42.47;;
80227;SDS011;69539;42.138;24.742;2024-02-21T05:52:54;48.45;;;35.08;;
80227;SDS011;69539;42.138;24.742;2024-02-21T05:55:23;50.25;;;36.35;;
80227;SDS011;69539;42.138;24.742;2024-02-21T05:57:49;46.08;;;32.78;;
80227;SDS011;69539;42.138;24.742;2024-02-21T06:00:15;284.58;;;180.63;;
80227;SDS011;69539;42.138;24.742;2024-02-21T06:02:41;214.10;;;139.82;;
80227;SDS011;69539;42.138;24.742;2024-02-21T06:05:07;151.68;;;100.20;;
80227;SDS011;69539;42.138;24.742;2024-02-21T06:07:34;103.60;;;71.80;;
80227;SDS011;69539;42.138;24.742;2024-02-21T06:10:00;587.90;;;390.85;;
80227;SDS011;69539;42.138;24.742;2024-02-21T06:12:29;799.45;;;572.85;;
80227;SDS011;69539;42.138;24.742;2024-02-21T06:14:54;845.35;;;582.58;;
80227;SDS011;69539;42.138;24.742;2024-02-21T06:17:20;447.05;;;278.13;;
80227;SDS011;69539;42.138;24.742;2024-02-21T06:19:46;253.45;;;152.05;;
80227;SDS011;69539;42.138;24.742;2024-02-21T06:22:11;115.57;;;75.47;;
80227;SDS011;69539;42.138;24.742;2024-02-21T06:24:37;75.68;;;50.97;;
80227;SDS011;69539;42.138;24.742;2024-02-21T06:27:04;56.38;;;41.00;;
80227;SDS011;69539;42.138;24.742;2024-02-21T06:29:33;50.28;;;35.70;;
80227;SDS011;69539;42.138;24.742;2024-02-21T06:31:59;47.22;;;34.00;;
80227;SDS011;69539;42.138;24.742;2024-02-21T06:34:24;42.67;;;31.00;;
80227;SDS011;69539;42.138;24.742;2024-02-21T06:36:50;42.92;;;30.85;;
80227;SDS011;69539;42.138;24.742;2024-02-21T06:39:16;40.75;;;33.10;;
80227;SDS011;69539;42.138;24.742;2024-02-21T06:41:42;37.00;;;28.92;;
80227;SDS011;69539;42.138;24.742;2024-02-21T06:44:08;405.42;;;280.30;;
80227;SDS011;69539;42.138;24.742;2024-02-21T06:46:34;704.42;;;486.10;;
80227;SDS011;69539;42.138;24.742;2024-02-21T06:49:00;374.55;;;219.30;;
80227;SDS011;69539;42.138;24.742;2024-02-21T06:51:27;209.30;;;121.63;;
80227;SDS011;69539;42.138;24.742;2024-02-21T06:53:53;130.18;;;79.45;;
80227;SDS011;69539;42.138;24.742;2024-02-21T06:56:19;103.32;;;63.60;;
80227;SDS011;69539;42.138;24.742;2024-02-21T06:58:45;74.70;;;47.85;;
80227;SDS011;69539;42.138;24.742;2024-02-21T07:01:10;108.18;;;68.95;;
80227;SDS011;69539;42.138;24.742;2024-02-21T07:03:36;53.40;;;37.20;;
80227;SDS011;69539;42.138;24.742;2024-02-21T07:06:02;45.90;;;32.75;;
80227;SDS011;69539;42.138;24.742;2024-02-21T07:08:28;1230.10;;;805.83;;
80227;SDS011;69539;42.138;24.742;2024-02-21T07:10:54;862.53;;;628.00;;
80227;SDS011;69539;42.138;24.742;2024-02-21T07:13:20;553.47;;;375.95;;
80227;SDS011;69539;42.138;24.742;2024-02-21T07:15:47;341.08;;;214.75;;
80227;SDS011;69539;42.138;24.742;2024-02-21T07:18:13;361.50;;;226.73;;
80227;SDS011;69539;42.138;24.742;2024-02-21T07:20:39;281.42;;;172.50;;
80227;SDS011;69539;42.138;24.742;2024-02-21T07:23:06;274.73;;;170.52;;
80227;SDS011;69539;42.138;24.742;2024-02-21T07:25:32;160.25;;;101.28;;
80227;SDS011;69539;42.138;24.742;2024-02-21T07:27:58;201.10;;;126.60;;
80227;SDS011;69539;42.138;24.742;2024-02-21T07:30:24;189.55;;;124.10;;
80227;SDS011;69539;42.138;24.742;2024-02-21T07:32:49;476.77;;;291.90;;
80227;SDS011;69539;42.138;24.742;2024-02-21T07:35:16;519.78;;;368.23;;
80227;SDS011;69539;42.138;24.742;2024-02-21T07:37:42;447.90;;;312.17;;
80227;SDS011;69539;42.138;24.742;2024-02-21T07:40:14;321.85;;;207.00;;
80227;SDS011;69539;42.138;24.742;2024-02-21T07:42:41;272.40;;;172.40;;
80227;SDS011;69539;42.138;24.742;2024-02-21T07:45:10;274.20;;;185.82;;
80227;SDS011;69539;42.138;24.742;2024-02-21T07:47:36;171.10;;;112.00;;
80227;SDS011;69539;42.138;24.742;2024-02-21T07:50:02;198.43;;;134.02;;
80227;SDS011;69539;42.138;24.742;2024-02-21T07:52:28;151.43;;;102.15;;
80227;SDS011;69539;42.138;24.742;2024-02-21T07:54:54;111.30;;;78.35;;
80227;SDS011;69539;42.138;24.742;2024-02-21T07:57:20;120.78;;;86.57;;
80227;SDS011;69539;42.138;24.742;2024-02-21T07:59:46;93.55;;;67.68;;
80227;SDS011;69539;42.138;24.742;2024-02-21T08:02:14;98.20;;;69.10;;
80227;SDS011;69539;42.138;24.742;2024-02-21T08:04:40;98.95;;;70.50;;
80227;SDS011;69539;42.138;24.742;2024-02-21T08:07:06;65.00;;;48.42;;
80227;SDS011;69539;42.138;24.742;2024-02-21T08:09:32;72.13;;;53.05;;
80227;SDS011;69539;42.138;24.742;2024-02-21T08:11:58;63.28;;;48.38;;
80227;SDS011;69539;42.138;24.742;2024-02-21T08:14:24;58.97;;;45.90;;
80227;SDS011;69539;42.138;24.742;2024-02-21T08:19:18;54.58;;;40.55;;
80227;SDS011;69539;42.138;24.742;2024-02-21T08:21:44;45.92;;;35.50;;
80227;SDS011;69539;42.138;24.742;2024-02-21T08:24:16;42.75;;;32.70;;
80227;SDS011;69539;42.138;24.742;2024-02-21T08:26:42;41.05;;;31.77;;
80227;SDS011;69539;42.138;24.742;2024-02-21T08:29:09;42.42;;;31.17;;
80227;SDS011;69539;42.138;24.742;2024-02-21T08:31:35;36.65;;;28.42;;
80227;SDS011;69539;42.138;24.742;2024-02-21T08:34:01;32.95;;;24.70;;
80227;SDS011;69539;42.138;24.742;2024-02-21T08:36:33;28.52;;;22.83;;
80227;SDS011;69539;42.138;24.742;2024-02-21T08:39:00;28.45;;;20.63;;
80227;SDS011;69539;42.138;24.742;2024-02-21T08:41:26;26.23;;;20.92;;
80227;SDS011;69539;42.138;24.742;2024-02-21T08:43:52;23.80;;;18.67;;
80227;SDS011;69539;42.138;24.742;2024-02-21T08:46:22;20.13;;;16.55;;
80227;SDS011;69539;42.138;24.742;2024-02-21T08:48:49;22.13;;;17.67;;
80227;SDS011;69539;42.138;24.742;2024-02-21T08:51:16;21.15;;;15.38;;
80227;SDS011;69539;42.138;24.742;2024-02-21T08:53:43;19.27;;;15.80;;
80227;SDS011;69539;42.138;24.742;2024-02-21T08:56:09;19.60;;;16.13;;
80227;SDS011;69539;42.138;24.742;2024-02-21T08:58:35;20.30;;;16.23;;
80227;SDS011;69539;42.138;24.742;2024-02-21T09:01:02;20.73;;;16.50;;
80227;SDS011;69539;42.138;24.742;2024-02-21T09:03:30;22.40;;;16.40;;
80227;SDS011;69539;42.138;24.742;2024-02-21T09:05:57;23.88;;;16.98;;
80227;SDS011;69539;42.138;24.742;2024-02-21T09:08:23;19.38;;;15.55;;
80227;SDS011;69539;42.138;24.742;2024-02-21T09:10:49;21.17;;;16.50;;
80227;SDS011;69539;42.138;24.742;2024-02-21T09:13:15;22.17;;;16.60;;
80227;SDS011;69539;42.138;24.742;2024-02-21T09:15:42;18.67;;;15.65;;
80227;SDS011;69539;42.138;24.742;2024-02-21T09:18:08;15.30;;;11.75;;
80227;SDS011;69539;42.138;24.742;2024-02-21T09:20:33;14.15;;;10.27;;
80227;SDS011;69539;42.138;24.742;2024-02-21T09:22:59;12.20;;;10.10;;
80227;SDS011;69539;42.138;24.742;2024-02-21T09:25:24;14.85;;;11.55;;
80227;SDS011;69539;42.138;24.742;2024-02-21T09:27:50;15.70;;;12.82;;
80227;SDS011;69539;42.138;24.742;2024-02-21T09:30:19;15.48;;;13.60;;
80227;SDS011;69539;42.138;24.742;2024-02-21T09:32:45;486.23;;;408.25;;
80227;SDS011;69539;42.138;24.742;2024-02-21T09:35:10;31.73;;;26.80;;
80227;SDS011;69539;42.138;24.742;2024-02-21T09:37:37;23.13;;;20.23;;
80227;SDS011;69539;42.138;24.742;2024-02-21T09:40:06;25.95;;;23.25;;
80227;SDS011;69539;42.138;24.742;2024-02-21T09:42:41;21.15;;;18.95;;
80227;SDS011;69539;42.138;24.742;2024-02-21T09:50:52;16.00;;;13.90;;
80227;SDS011;69539;42.138;24.742;2024-02-21T09:55:47;15.85;;;12.30;;
80227;SDS011;69539;42.138;24.742;2024-02-21T09:58:13;13.32;;;11.82;;
80227;SDS011;69539;42.138;24.742;2024-02-21T10:00:40;11.23;;;10.02;;
80227;SDS011;69539;42.138;24.742;2024-02-21T10:03:06;11.68;;;10.52;;
80227;SDS011;69539;42.138;24.742;2024-02-21T10:05:34;12.45;;;11.07;;
80227;SDS011;69539;42.138;24.742;2024-02-21T10:08:01;12.40;;;11.10;;
80227;SDS011;69539;42.138;24.742;2024-02-21T10:10:27;12.35;;;11.05;;
80227;SDS011;69539;42.138;24.742;2024-02-21T10:12:54;11.63;;;10.43;;
80227;SDS011;69539;42.138;24.742;2024-02-21T10:15:21;11.45;;;9.70;;
80227;SDS011;69539;42.138;24.742;2024-02-21T10:17:57;12.55;;;10.75;;
80227;SDS011;69539;42.138;24.742;2024-02-21T10:20:24;11.68;;;10.45;;
80227;SDS011;69539;42.138;24.742;2024-02-21T10:22:59;12.48;;;11.18;;
80227;SDS011;69539;42.138;24.742;2024-02-21T10:25:32;11.63;;;10.43;;
80227;SDS011;69539;42.138;24.742;2024-02-21T10:28:00;12.35;;;10.32;;
80227;SDS011;69539;42.138;24.742;2024-02-21T10:30:26;11.68;;;10.48;;
80227;SDS011;69539;42.138;24.742;2024-02-21T10:32:55;9.52;;;8.60;;
80227;SDS011;69539;42.138;24.742;2024-02-21T10:35:31;9.82;;;8.82;;
80227;SDS011;69539;42.138;24.742;2024-02-21T10:37:58;10.23;;;9.23;;
80227;SDS011;69539;42.138;24.742;2024-02-21T10:40:28;9.48;;;8.43;;
80227;SDS011;69539;42.138;24.742;2024-02-21T10:42:58;9.85;;;8.85;;
80227;SDS011;69539;42.138;24.742;2024-02-21T10:45:31;155.95;;;140.90;;
80227;SDS011;69539;42.138;24.742;2024-02-21T10:48:08;662.88;;;594.80;;
80227;SDS011;69539;42.138;24.742;2024-02-21T10:50:36;506.05;;;451.38;;
80227;SDS011;69539;42.138;24.742;2024-02-21T10:53:29;760.10;;;681.75;;
80227;SDS011;69539;42.138;24.742;2024-02-21T10:59:04;549.25;;;492.98;;
80227;SDS011;69539;42.138;24.742;2024-02-21T11:01:31;357.30;;;305.35;;
80227;SDS011;69539;42.138;24.742;2024-02-21T11:03:58;238.38;;;210.38;;
80227;SDS011;69539;42.138;24.742;2024-02-21T11:06:27;191.73;;;165.55;;
80227;SDS011;69539;42.138;24.742;2024-02-21T11:09:01;128.55;;;110.63;;
80227;SDS011;69539;42.138;24.742;2024-02-21T11:11:27;120.60;;;106.70;;
80227;SDS011;69539;42.138;24.742;2024-02-21T11:14:03;391.95;;;329.80;;
80227;SDS011;69539;42.138;24.742;2024-02-21T11:16:38;320.48;;;263.42;;
80227;SDS011;69539;42.138;24.742;2024-02-21T11:19:08;228.73;;;190.15;;
80227;SDS011;69539;42.138;24.742;2024-02-21T11:21:36;155.35;;;128.15;;
80227;SDS011;69539;42.138;24.742;2024-02-21T11:24:05;90.80;;;78.88;;
80227;SDS011;69539;42.138;24.742;2024-02-21T11:26:31;49.05;;;41.90;;
80227;SDS011;69539;42.138;24.742;2024-02-21T11:31:23;24.35;;;21.10;;
80227;SDS011;69539;42.138;24.742;2024-02-21T11:33:48;20.38;;;18.17;;
80227;SDS011;69539;42.138;24.742;2024-02-21T11:36:24;20.33;;;18.13;;
80227;SDS011;69539;42.138;24.742;2024-02-21T11:38:53;16.33;;;14.38;;
80227;SDS011;69539;42.138;24.742;2024-02-21T11:41:19;15.80;;;13.80;;
80227;SDS011;69539;42.138;24.742;2024-02-21T11:43:48;13.27;;;11.88;;
80227;SDS011;69539;42.138;24.742;2024-02-21T11:46:15;11.85;;;10.50;;
80227;SDS011;69539;42.138;24.742;2024-02-21T11:48:41;11.50;;;9.48;;
80227;SDS011;69539;42.138;24.742;2024-02-21T11:51:09;10.80;;;9.70;;
80227;SDS011;69539;42.138;24.742;2024-02-21T11:53:36;11.02;;;9.30;;
80227;SDS011;69539;42.138;24.742;2024-02-21T11:56:02;10.13;;;8.30;;
80227;SDS011;69539;42.138;24.742;2024-02-21T11:58:27;10.13;;;8.93;;
80227;SDS011;69539;42.138;24.742;2024-02-21T12:00:54;9.10;;;8.18;;
80227;SDS011;69539;42.138;24.742;2024-02-21T12:03:20;10.93;;;7.90;;
80227;SDS011;69539;42.138;24.742;2024-02-21T12:05:46;9.57;;;8.57;;
80227;SDS011;69539;42.138;24.742;2024-02-21T12:08:11;12.13;;;8.23;;
80227;SDS011;69539;42.138;24.742;2024-02-21T12:10:37;9.00;;;8.02;;
80227;SDS011;69539;42.138;24.742;2024-02-21T12:13:07;9.88;;;7.95;;
80227;SDS011;69539;42.138;24.742;2024-02-21T12:15:38;10.65;;;7.95;;
80227;SDS011;69539;42.138;24.742;2024-02-21T12:18:05;9.82;;;7.90;;
80227;SDS011;69539;42.138;24.742;2024-02-21T12:20:31;8.73;;;7.75;;
80227;SDS011;69539;42.138;24.742;2024-02-21T12:23:01;9.23;;;8.02;;
80227;SDS011;69539;42.138;24.742;2024-02-21T12:25:27;8.48;;;7.57;;
80227;SDS011;69539;42.138;24.742;2024-02-21T12:27:54;9.27;;;8.13;;
80227;SDS011;69539;42.138;24.742;2024-02-21T12:30:21;8.75;;;7.45;;
80227;SDS011;69539;42.138;24.742;2024-02-21T12:32:47;9.23;;;7.25;;
80227;SDS011;69539;42.138;24.742;2024-02-21T12:35:13;8.82;;;7.07;;
80227;SDS011;69539;42.138;24.742;2024-02-21T12:37:39;8.15;;;7.18;;
80227;SDS011;69539;42.138;24.742;2024-02-21T12:40:05;9.05;;;7.13;;
80227;SDS011;69539;42.138;24.742;2024-02-21T12:42:32;8.40;;;6.53;;
80227;SDS011;69539;42.138;24.742;2024-02-21T12:44:58;8.25;;;7.05;;
80227;SDS011;69539;42.138;24.742;2024-02-21T12:47:24;7.50;;;6.70;;
80227;SDS011;69539;42.138;24.742;2024-02-21T12:49:51;7.90;;;6.63;;
80227;SDS011;69539;42.138;24.742;2024-02-21T12:52:17;7.53;;;6.38;;
80227;SDS011;69539;42.138;24.742;2024-02-21T12:54:44;7.43;;;6.57;;
80227;SDS011;69539;42.138;24.742;2024-02-21T12:57:09;8.38;;;5.95;;
80227;SDS011;69539;42.138;24.742;2024-02-21T12:59:35;8.38;;;6.13;;
80227;SDS011;69539;42.138;24.742;2024-02-21T13:02:01;6.80;;;5.82;;
80227;SDS011;69539;42.138;24.742;2024-02-21T13:04:27;6.65;;;5.85;;
80227;SDS011;69539;42.138;24.742;2024-02-21T13:06:53;6.63;;;4.70;;
80227;SDS011;69539;42.138;24.742;2024-02-21T13:09:20;5.70;;;4.78;;
80227;SDS011;69539;42.138;24.742;2024-02-21T13:11:47;5.53;;;5.00;;
80227;SDS011;69539;42.138;24.742;2024-02-21T13:14:12;8.32;;;5.03;;
80227;SDS011;69539;42.138;24.742;2024-02-21T13:16:38;5.93;;;4.75;;
80227;SDS011;69539;42.138;24.742;2024-02-21T13:19:07;6.15;;;4.82;;
80227;SDS011;69539;42.138;24.742;2024-02-21T13:21:34;5.78;;;4.88;;
80227;SDS011;69539;42.138;24.742;2024-02-21T13:24:00;5.47;;;4.60;;
80227;SDS011;69539;42.138;24.742;2024-02-21T13:26:26;5.10;;;3.92;;
80227;SDS011;69539;42.138;24.742;2024-02-21T13:28:52;5.00;;;4.20;;
80227;SDS011;69539;42.138;24.742;2024-02-21T13:31:18;5.20;;;4.30;;
80227;SDS011;69539;42.138;24.742;2024-02-21T13:33:44;5.70;;;4.60;;
80227;SDS011;69539;42.138;24.742;2024-02-21T13:36:10;6.30;;;4.82;;
80227;SDS011;69539;42.138;24.742;2024-02-21T13:38:36;5.47;;;4.28;;
80227;SDS011;69539;42.138;24.742;2024-02-21T13:41:03;5.55;;;4.32;;
80227;SDS011;69539;42.138;24.742;2024-02-21T13:43:30;5.15;;;4.20;;
80227;SDS011;69539;42.138;24.742;2024-02-21T13:45:56;5.80;;;4.35;;
80227;SDS011;69539;42.138;24.742;2024-02-21T13:48:27;7.47;;;4.32;;
80227;SDS011;69539;42.138;24.742;2024-02-21T13:50:54;6.03;;;4.80;;
80227;SDS011;69539;42.138;24.742;2024-02-21T13:53:20;7.18;;;4.40;;
80227;SDS011;69539;42.138;24.742;2024-02-21T13:55:46;9.07;;;4.68;;
80227;SDS011;69539;42.138;24.742;2024-02-21T13:58:12;7.95;;;5.15;;
80227;SDS011;69539;42.138;24.742;2024-02-21T14:00:38;10.52;;;5.82;;
80227;SDS011;69539;42.138;24.742;2024-02-21T14:03:04;8.48;;;5.20;;
80227;SDS011;69539;42.138;24.742;2024-02-21T14:05:29;10.95;;;6.80;;
80227;SDS011;69539;42.138;24.742;2024-02-21T14:07:55;14.30;;;8.40;;
80227;SDS011;69539;42.138;24.742;2024-02-21T14:10:21;9.85;;;5.60;;
80227;SDS011;69539;42.138;24.742;2024-02-21T14:12:47;5.85;;;4.57;;
80227;SDS011;69539;42.138;24.742;2024-02-21T14:15:13;6.40;;;3.70;;
80227;SDS011;69539;42.138;24.742;2024-02-21T14:17:39;7.32;;;3.90;;
80227;SDS011;69539;42.138;24.742;2024-02-21T14:20:08;4.93;;;3.70;;
80227;SDS011;69539;42.138;24.742;2024-02-21T14:22:34;5.45;;;4.00;;